sensor_id;sensor_type;location;lat;lon;timestamp;temperature;humidity
57719;DHT22;43561;50.090;18.522;2022-09-20T00:04:01;9.30;99.90
57719;DHT22;43561;50.090;18.522;2022-09-20T00:14:05;9.50;99.90
57719;DHT22;43561;50.090;18.522;2022-09-20T00:24:09;9.50;99.90
57719;DHT22;43561;50.090;18.522;2022-09-20T00:34:14;9.50;99.90
57719;DHT22;43561;50.090;18.522;2022-09-20T00:54:44;9.40;99.90
57719;DHT22;43561;50.090;18.522;2022-09-20T01:04:56;9.50;99.90
57719;DHT22;43561;50.090;18.522;2022-09-20T01:14:59;9.40;99.90
57719;DHT22;43561;50.090;18.522;2022-09-20T01:35:14;9.40;99.90
57719;DHT22;43561;50.090;18.522;2022-09-20T01:45:29;9.50;99.90
57719;DHT22;43561;50.090;18.522;2022-09-20T02:26:56;9.50;99.90
57719;DHT22;43561;50.090;18.522;2022-09-20T02:47:38;9.50;99.90
57719;DHT22;43561;50.090;18.522;2022-09-20T02:58:22;9.60;99.90
57719;DHT22;43561;50.090;18.522;2022-09-20T04:00:36;9.30;99.90
57719;DHT22;43561;50.090;18.522;2022-09-20T04:11:04;9.30;99.90
57719;DHT22;43561;50.090;18.522;2022-09-20T04:21:21;9.30;99.90
57719;DHT22;43561;50.090;18.522;2022-09-20T04:42:03;9.40;99.90
57719;DHT22;43561;50.090;18.522;2022-09-20T05:34:59;9.50;99.90
57719;DHT22;43561;50.090;18.522;2022-09-20T06:16:05;9.70;99.90
57719;DHT22;43561;50.090;18.522;2022-09-20T06:26:20;9.80;99.90
57719;DHT22;43561;50.090;18.522;2022-09-20T06:36:35;9.80;99.90
57719;DHT22;43561;50.090;18.522;2022-09-20T06:46:38;9.80;99.90
57719;DHT22;43561;50.090;18.522;2022-09-20T06:56:42;9.80;99.90
57719;DHT22;43561;50.090;18.522;2022-09-20T07:06:47;9.80;99.90
57719;DHT22;43561;50.090;18.522;2022-09-20T07:16:50;10.00;99.90
57719;DHT22;43561;50.090;18.522;2022-09-20T07:27:00;10.20;99.90
57719;DHT22;43561;50.090;18.522;2022-09-20T07:37:03;10.50;99.90
57719;DHT22;43561;50.090;18.522;2022-09-20T07:58:08;10.90;99.90
57719;DHT22;43561;50.090;18.522;2022-09-20T08:08:10;11.00;99.90
57719;DHT22;43561;50.090;18.522;2022-09-20T08:18:12;11.10;99.90
57719;DHT22;43561;50.090;18.522;2022-09-20T08:28:14;11.10;99.90
57719;DHT22;43561;50.090;18.522;2022-09-20T08:38:16;11.50;99.90
57719;DHT22;43561;50.090;18.522;2022-09-20T08:48:38;11.20;99.90
57719;DHT22;43561;50.090;18.522;2022-09-20T08:58:40;12.00;99.90
57719;DHT22;43561;50.090;18.522;2022-09-20T09:08:42;12.10;99.90
57719;DHT22;43561;50.090;18.522;2022-09-20T09:18:47;12.40;99.90
57719;DHT22;43561;50.090;18.522;2022-09-20T09:29:13;12.10;99.90
57719;DHT22;43561;50.090;18.522;2022-09-20T09:49:28;12.70;99.90
57719;DHT22;43561;50.090;18.522;2022-09-20T10:00:25;11.90;99.90
57719;DHT22;43561;50.090;18.522;2022-09-20T10:10:34;11.70;99.90
57719;DHT22;43561;50.090;18.522;2022-09-20T11:14:17;12.90;99.90
57719;DHT22;43561;50.090;18.522;2022-09-20T11:24:37;13.10;99.90
57719;DHT22;43561;50.090;18.522;2022-09-20T11:45:21;13.40;99.90
57719;DHT22;43561;50.090;18.522;2022-09-20T11:55:51;13.20;99.90
57719;DHT22;43561;50.090;18.522;2022-09-20T12:16:55;13.20;99.90
57719;DHT22;43561;50.090;18.522;2022-09-20T12:37:32;13.80;99.90
57719;DHT22;43561;50.090;18.522;2022-09-20T12:47:36;13.30;99.90
57719;DHT22;43561;50.090;18.522;2022-09-20T12:57:39;13.80;99.90
57719;DHT22;43561;50.090;18.522;2022-09-20T13:07:52;14.70;99.90
57719;DHT22;43561;50.090;18.522;2022-09-20T13:17:58;13.80;99.90
57719;DHT22;43561;50.090;18.522;2022-09-20T13:28:19;14.20;99.90
57719;DHT22;43561;50.090;18.522;2022-09-20T13:38:28;14.50;99.90
57719;DHT22;43561;50.090;18.522;2022-09-20T13:48:32;14.60;99.90
57719;DHT22;43561;50.090;18.522;2022-09-20T13:58:37;14.30;99.90
57719;DHT22;43561;50.090;18.522;2022-09-20T14:08:47;14.10;99.90
57719;DHT22;43561;50.090;18.522;2022-09-20T14:18:50;13.10;99.90
57719;DHT22;43561;50.090;18.522;2022-09-20T14:39:28;13.20;99.90
57719;DHT22;43561;50.090;18.522;2022-09-20T14:49:32;12.80;99.90
57719;DHT22;43561;50.090;18.522;2022-09-20T14:59:41;12.90;99.90
57719;DHT22;43561;50.090;18.522;2022-09-20T15:09:43;12.70;99.90
57719;DHT22;43561;50.090;18.522;2022-09-20T15:19:47;12.80;99.90
57719;DHT22;43561;50.090;18.522;2022-09-20T15:29:49;12.70;99.90
57719;DHT22;43561;50.090;18.522;2022-09-20T15:39:51;12.40;99.90
57719;DHT22;43561;50.090;18.522;2022-09-20T15:49:53;12.00;99.90
57719;DHT22;43561;50.090;18.522;2022-09-20T15:59:58;11.90;99.90
57719;DHT22;43561;50.090;18.522;2022-09-20T16:10:00;11.70;99.90
57719;DHT22;43561;50.090;18.522;2022-09-20T16:20:02;11.70;99.90
57719;DHT22;43561;50.090;18.522;2022-09-20T16:30:05;11.40;99.90
57719;DHT22;43561;50.090;18.522;2022-09-20T16:40:08;11.50;99.90
57719;DHT22;43561;50.090;18.522;2022-09-20T16:50:10;11.30;99.90
57719;DHT22;43561;50.090;18.522;2022-09-20T17:00:12;11.00;99.90
57719;DHT22;43561;50.090;18.522;2022-09-20T17:10:19;10.70;99.90
57719;DHT22;43561;50.090;18.522;2022-09-20T17:20:24;10.60;99.90
57719;DHT22;43561;50.090;18.522;2022-09-20T17:30:27;10.40;99.90
57719;DHT22;43561;50.090;18.522;2022-09-20T17:40:30;10.30;99.90
57719;DHT22;43561;50.090;18.522;2022-09-20T17:50:32;10.20;99.90
57719;DHT22;43561;50.090;18.522;2022-09-20T18:00:34;10.00;99.90
57719;DHT22;43561;50.090;18.522;2022-09-20T18:10:40;10.00;99.90
57719;DHT22;43561;50.090;18.522;2022-09-20T18:20:42;9.90;99.90
57719;DHT22;43561;50.090;18.522;2022-09-20T18:30:44;9.80;99.90
57719;DHT22;43561;50.090;18.522;2022-09-20T18:40:56;9.90;99.90
57719;DHT22;43561;50.090;18.522;2022-09-20T18:51:00;9.90;99.90
57719;DHT22;43561;50.090;18.522;2022-09-20T19:01:16;9.80;99.90
57719;DHT22;43561;50.090;18.522;2022-09-20T19:11:53;9.80;99.90
57719;DHT22;43561;50.090;18.522;2022-09-20T19:32:02;9.90;99.90
57719;DHT22;43561;50.090;18.522;2022-09-20T19:52:43;10.00;99.90
57719;DHT22;43561;50.090;18.522;2022-09-20T20:02:46;10.00;99.90
57719;DHT22;43561;50.090;18.522;2022-09-20T20:33:51;9.80;99.90
57719;DHT22;43561;50.090;18.522;2022-09-20T20:43:53;9.70;99.90
57719;DHT22;43561;50.090;18.522;2022-09-20T20:53:55;9.60;99.90
57719;DHT22;43561;50.090;18.522;2022-09-20T21:03:59;9.40;99.90
57719;DHT22;43561;50.090;18.522;2022-09-20T21:14:03;9.20;99.90
57719;DHT22;43561;50.090;18.522;2022-09-20T21:24:07;9.00;99.90
57719;DHT22;43561;50.090;18.522;2022-09-20T21:34:12;8.90;99.90
57719;DHT22;43561;50.090;18.522;2022-09-20T21:44:14;8.90;99.90
57719;DHT22;43561;50.090;18.522;2022-09-20T21:54:16;9.00;99.90
57719;DHT22;43561;50.090;18.522;2022-09-20T22:04:18;8.70;99.90
57719;DHT22;43561;50.090;18.522;2022-09-20T22:14:20;8.70;99.90
57719;DHT22;43561;50.090;18.522;2022-09-20T22:24:22;8.70;99.90
57719;DHT22;43561;50.090;18.522;2022-09-20T22:34:27;8.50;99.90
57719;DHT22;43561;50.090;18.522;2022-09-20T22:44:30;8.40;99.90
57719;DHT22;43561;50.090;18.522;2022-09-20T22:54:38;8.30;99.90
57719;DHT22;43561;50.090;18.522;2022-09-20T23:04:41;8.20;99.90
57719;DHT22;43561;50.090;18.522;2022-09-20T23:14:43;8.20;99.90
57719;DHT22;43561;50.090;18.522;2022-09-20T23:24:45;8.20;99.90
57719;DHT22;43561;50.090;18.522;2022-09-20T23:34:46;8.20;99.90
57719;DHT22;43561;50.090;18.522;2022-09-20T23:44:54;8.20;99.90
57719;DHT22;43561;50.090;18.522;2022-09-20T23:55:02;8.30;99.90
